createdAt,value
2018-09-21T00:00:05.344Z,22.20
2018-09-21T00:02:33.025Z,22.23
2018-09-21T00:05:01.994Z,22.30
2018-09-21T00:07:29.564Z,22.27
2018-09-21T00:09:57.128Z,22.37
2018-09-21T00:12:24.773Z,22.24
2018-09-21T00:14:52.612Z,22.21
2018-09-21T00:17:20.218Z,22.25
2018-09-21T00:19:47.787Z,22.37
2018-09-21T00:22:15.830Z,22.16
2018-09-21T00:24:43.638Z,22.19
2018-09-21T00:27:11.281Z,22.15
2018-09-21T00:29:38.873Z,22.11
2018-09-21T00:32:06.928Z,22.19
2018-09-21T00:34:34.576Z,22.27
2018-09-21T00:37:02.137Z,22.02
2018-09-21T00:39:29.910Z,22.10
2018-09-21T00:41:57.471Z,21.97
2018-09-21T00:44:25.012Z,22.07
2018-09-21T00:46:52.608Z,22.09
2018-09-21T00:49:20.142Z,22.00
2018-09-21T00:51:47.783Z,22.13
2018-09-21T00:54:15.302Z,22.13
2018-09-21T00:56:42.983Z,22.10
2018-09-21T00:59:10.545Z,21.81
2018-09-21T01:01:38.224Z,21.90
2018-09-21T01:04:05.971Z,22.07
2018-09-21T01:06:33.704Z,21.99
2018-09-21T01:09:01.305Z,22.03
2018-09-21T01:11:28.977Z,22.16
2018-09-21T01:13:56.541Z,22.04
2018-09-21T01:16:24.150Z,22.16
2018-09-21T01:18:51.722Z,22.01
2018-09-21T01:21:19.293Z,21.78
2018-09-21T01:23:46.836Z,21.89
2018-09-21T01:26:14.424Z,21.82
2018-09-21T01:28:41.950Z,21.85
2018-09-21T01:31:09.577Z,21.94
2018-09-21T01:33:37.626Z,21.96
2018-09-21T01:36:05.409Z,21.89
2018-09-21T01:38:32.984Z,21.84
2018-09-21T01:41:00.558Z,21.96
2018-09-21T01:43:28.082Z,21.99
2018-09-21T01:45:55.670Z,22.02
2018-09-21T01:48:23.212Z,21.95
2018-09-21T01:50:50.734Z,22.02
2018-09-21T01:53:18.321Z,21.90
2018-09-21T01:55:45.856Z,21.99
2018-09-21T01:58:13.387Z,21.92
2018-09-21T02:00:40.982Z,21.91
2018-09-21T02:03:08.503Z,21.94
2018-09-21T02:05:36.068Z,21.88
2018-09-21T02:08:03.607Z,21.93
2018-09-21T02:10:31.381Z,21.84
2018-09-21T02:12:58.918Z,21.96
2018-09-21T02:15:26.479Z,21.78
2018-09-21T02:17:54.040Z,21.68
2018-09-21T02:20:21.591Z,21.97
2018-09-21T02:22:49.167Z,21.85
2018-09-21T02:25:16.716Z,21.80
2018-09-21T02:27:44.277Z,21.62
2018-09-21T02:30:11.824Z,21.67
2018-09-21T02:32:39.374Z,21.75
2018-09-21T02:35:06.952Z,21.89
2018-09-21T02:37:34.518Z,21.83
2018-09-21T02:40:02.060Z,21.71
2018-09-21T02:42:29.628Z,21.82
2018-09-21T02:44:57.165Z,21.76
2018-09-21T02:47:24.711Z,21.74
2018-09-21T02:49:52.214Z,21.69
2018-09-21T02:52:19.792Z,21.64
2018-09-21T02:54:47.365Z,21.65
2018-09-21T02:57:14.902Z,21.78
2018-09-21T02:59:42.489Z,21.74
2018-09-21T03:02:10.025Z,21.75
2018-09-21T03:04:37.559Z,21.88
2018-09-21T03:07:05.139Z,21.83
2018-09-21T03:09:32.701Z,21.92
2018-09-21T03:12:00.226Z,21.97
2018-09-21T03:14:27.804Z,21.93
2018-09-21T03:16:55.730Z,21.90
2018-09-21T03:19:23.312Z,21.90
2018-09-21T03:21:51.080Z,21.97
2018-09-21T03:24:18.592Z,22.09
2018-09-21T03:26:46.311Z,22.15
2018-09-21T03:29:13.844Z,22.03
2018-09-21T03:31:41.508Z,22.08
2018-09-21T03:34:09.014Z,22.11
2018-09-21T03:36:36.516Z,22.05
2018-09-21T03:39:05.143Z,22.22
2018-09-21T03:41:32.664Z,22.12
2018-09-21T03:44:00.215Z,22.13
2018-09-21T03:46:27.771Z,22.15
2018-09-21T03:48:55.344Z,22.21
2018-09-21T03:51:22.920Z,22.12
2018-09-21T03:53:50.454Z,22.14
2018-09-21T03:56:18.036Z,22.27
2018-09-21T03:58:45.612Z,22.06
2018-09-21T04:01:13.204Z,22.08
2018-09-21T04:03:44.381Z,22.15
2018-09-21T04:06:11.919Z,22.19
2018-09-21T04:08:39.426Z,22.36
2018-09-21T04:11:06.983Z,22.36
2018-09-21T04:13:34.546Z,22.13
2018-09-21T04:16:02.080Z,22.18
2018-09-21T04:18:29.635Z,22.17
2018-09-21T04:20:57.201Z,22.20
2018-09-21T04:23:24.731Z,22.23
2018-09-21T04:25:52.268Z,21.99
2018-09-21T04:28:19.855Z,22.06
2018-09-21T04:30:47.378Z,21.95
2018-09-21T04:33:15.030Z,22.09
2018-09-21T04:35:42.610Z,22.15
2018-09-21T04:38:10.142Z,22.12
2018-09-21T04:40:37.691Z,22.01
2018-09-21T04:43:05.199Z,22.09
2018-09-21T04:45:32.798Z,22.11
2018-09-21T04:48:00.351Z,22.08
2018-09-21T04:50:27.869Z,22.07
2018-09-21T04:52:55.429Z,22.12
2018-09-21T04:55:22.995Z,22.06
2018-09-21T04:57:50.516Z,21.97
2018-09-21T05:00:18.045Z,22.06
2018-09-21T05:02:45.593Z,22.21
2018-09-21T05:05:13.145Z,22.19
2018-09-21T05:07:40.710Z,21.88
2018-09-21T05:10:08.444Z,22.08
2018-09-21T05:12:36.019Z,22.10
2018-09-21T05:15:03.594Z,22.03
2018-09-21T05:17:31.129Z,22.02
2018-09-21T05:19:58.668Z,22.22
2018-09-21T05:22:26.239Z,21.97
2018-09-21T05:24:53.822Z,21.97
2018-09-21T05:27:21.397Z,22.03
2018-09-21T05:29:49.026Z,22.05
2018-09-21T05:32:16.544Z,22.06
2018-09-21T05:34:44.201Z,22.10
2018-09-21T05:37:11.642Z,22.00
2018-09-21T05:39:39.241Z,22.08
2018-09-21T05:42:06.808Z,22.05
2018-09-21T05:44:34.380Z,22.01
2018-09-21T05:47:01.954Z,22.04
2018-09-21T05:49:29.525Z,22.09
2018-09-21T05:51:57.077Z,22.03
2018-09-21T05:54:24.623Z,22.15
2018-09-21T05:56:52.214Z,22.07
2018-09-21T05:59:19.826Z,22.02
2018-09-21T06:01:47.390Z,21.97
2018-09-21T06:04:14.965Z,22.09
2018-09-21T06:06:42.550Z,22.06
2018-09-21T06:09:10.554Z,21.89
2018-09-21T06:11:38.136Z,21.87
2018-09-21T06:14:06.125Z,22.00
2018-09-21T06:16:34.404Z,21.88
2018-09-21T06:19:03.184Z,21.99
2018-09-21T06:21:33.222Z,21.97
2018-09-21T06:24:00.795Z,21.88
2018-09-21T06:26:28.356Z,21.95
2018-09-21T06:28:56.088Z,21.76
2018-09-21T06:31:23.596Z,21.87
2018-09-21T06:33:51.157Z,21.93
2018-09-21T06:36:18.697Z,22.03
2018-09-21T06:38:46.259Z,21.85
2018-09-21T06:41:13.796Z,21.90
2018-09-21T06:43:41.318Z,21.85
2018-09-21T06:46:08.882Z,21.88
2018-09-21T06:48:36.437Z,21.75
2018-09-21T06:51:04.149Z,21.69
2018-09-21T06:53:31.724Z,21.96
2018-09-21T06:55:59.595Z,21.91
2018-09-21T06:58:27.992Z,21.82
2018-09-21T07:00:55.622Z,21.80
2018-09-21T07:03:24.246Z,21.88
2018-09-21T07:05:51.952Z,21.74
2018-09-21T07:08:19.749Z,21.81
2018-09-21T07:10:47.270Z,21.82
2018-09-21T07:13:14.950Z,21.71
2018-09-21T07:15:42.760Z,21.68
2018-09-21T07:18:10.497Z,21.70
2018-09-21T07:20:37.999Z,21.75
2018-09-21T07:23:05.971Z,21.85
2018-09-21T07:25:33.517Z,21.77
2018-09-21T07:28:01.267Z,21.77
2018-09-21T07:30:28.811Z,21.74
2018-09-21T07:32:56.389Z,21.83
2018-09-21T07:35:24.023Z,21.85
2018-09-21T07:37:51.608Z,21.97
2018-09-21T07:40:19.324Z,21.86
2018-09-21T07:42:47.018Z,21.84
2018-09-21T07:45:14.685Z,21.85
2018-09-21T07:47:42.480Z,21.89
2018-09-21T07:50:10.195Z,21.92
2018-09-21T07:52:37.764Z,21.86
2018-09-21T07:55:05.325Z,21.76
2018-09-21T07:57:32.933Z,21.67
2018-09-21T08:00:00.886Z,21.61
2018-09-21T08:02:28.964Z,21.61
2018-09-21T08:04:56.504Z,21.61
2018-09-21T08:07:24.281Z,21.53
2018-09-21T08:09:53.100Z,21.47
2018-09-21T08:12:20.823Z,21.27
2018-09-21T08:14:48.429Z,21.39
2018-09-21T08:17:16.228Z,21.45
2018-09-21T08:19:45.131Z,21.41
2018-09-21T08:22:12.923Z,21.42
2018-09-21T08:24:40.652Z,21.67
2018-09-21T08:27:08.561Z,21.56
2018-09-21T08:29:36.420Z,21.56
2018-09-21T08:32:04.018Z,21.64
2018-09-21T08:34:31.662Z,21.60
2018-09-21T08:36:59.397Z,21.51
2018-09-21T08:39:26.960Z,21.17
2018-09-21T08:41:54.505Z,21.15
2018-09-21T08:44:23.229Z,21.26
2018-09-21T08:46:50.845Z,20.84
2018-09-21T08:49:18.408Z,20.62
2018-09-21T08:51:45.967Z,20.35
2018-09-21T08:54:13.746Z,19.95
2018-09-21T08:56:41.425Z,19.43
2018-09-21T08:59:08.969Z,18.41
2018-09-21T09:01:36.633Z,17.98
2018-09-21T09:04:04.216Z,17.90
2018-09-21T09:06:32.122Z,18.29
2018-09-21T09:08:59.915Z,17.68
2018-09-21T09:11:27.719Z,16.96
2018-09-21T09:13:55.590Z,16.69
2018-09-21T09:16:23.278Z,15.81
2018-09-21T09:18:51.219Z,16.27
2018-09-21T09:21:19.038Z,15.71
2018-09-21T09:23:46.638Z,15.33
2018-09-21T09:26:14.443Z,14.83
2018-09-21T09:28:42.133Z,15.05
2018-09-21T09:31:09.841Z,14.72
2018-09-21T09:33:37.415Z,14.56
2018-09-21T09:36:05.216Z,14.99
2018-09-21T09:38:33.012Z,14.51
2018-09-21T09:41:00.756Z,14.48
2018-09-21T09:43:28.474Z,14.72
2018-09-21T09:45:56.807Z,14.60
2018-09-21T09:48:24.836Z,14.40
2018-09-21T09:50:53.079Z,14.59
2018-09-21T09:53:20.821Z,14.79
2018-09-21T09:55:48.895Z,14.94
2018-09-21T09:58:16.808Z,14.43
2018-09-21T10:00:45.258Z,14.36
2018-09-21T10:03:13.102Z,14.41
2018-09-21T10:05:40.887Z,14.75
2018-09-21T10:08:08.783Z,14.63
2018-09-21T10:10:36.506Z,14.54
2018-09-21T10:13:04.318Z,14.22
2018-09-21T10:15:32.119Z,14.25
2018-09-21T10:17:59.866Z,14.36
2018-09-21T10:20:28.020Z,14.39
2018-09-21T10:22:55.937Z,14.57
2018-09-21T10:25:25.408Z,14.48
2018-09-21T10:27:53.844Z,14.82
2018-09-21T10:30:21.363Z,14.49
2018-09-21T10:32:48.987Z,14.62
2018-09-21T10:35:16.611Z,14.69
2018-09-21T10:37:44.369Z,15.11
2018-09-21T10:40:12.126Z,15.23
2018-09-21T10:42:39.867Z,14.99
2018-09-21T10:45:07.723Z,15.01
2018-09-21T10:47:35.665Z,15.23
2018-09-21T10:50:03.472Z,15.39
2018-09-21T10:52:31.096Z,15.03
2018-09-21T10:54:59.107Z,15.16
2018-09-21T10:57:26.964Z,15.46
2018-09-21T10:59:54.707Z,15.54
2018-09-21T11:02:22.550Z,15.85
2018-09-21T11:04:50.088Z,15.65
2018-09-21T11:07:17.789Z,15.59
2018-09-21T11:09:45.319Z,15.40
2018-09-21T11:12:12.859Z,15.27
2018-09-21T11:14:40.440Z,15.35
2018-09-21T11:17:08.017Z,15.72
2018-09-21T11:19:35.592Z,15.32
2018-09-21T11:22:03.126Z,15.28
2018-09-21T11:24:30.810Z,15.34
2018-09-21T11:26:58.505Z,15.87
2018-09-21T11:29:26.075Z,15.92
2018-09-21T11:31:53.773Z,15.63
2018-09-21T11:34:21.377Z,15.46
2018-09-21T11:36:48.972Z,15.26
2018-09-21T11:39:16.750Z,15.55
2018-09-21T11:41:44.814Z,15.41
2018-09-21T11:44:12.687Z,15.75
2018-09-21T11:46:40.531Z,15.68
2018-09-21T11:49:08.213Z,15.55
2018-09-21T11:51:36.031Z,15.50
2018-09-21T11:54:03.603Z,15.44
2018-09-21T11:56:31.244Z,15.40
2018-09-21T11:58:58.985Z,15.58
2018-09-21T12:01:26.762Z,15.79
2018-09-21T12:03:54.504Z,15.92
2018-09-21T12:06:22.494Z,15.72
2018-09-21T12:08:50.680Z,15.97
2018-09-21T12:11:18.268Z,15.69
2018-09-21T12:13:45.844Z,15.97
2018-09-21T12:16:13.659Z,16.21
2018-09-21T12:18:41.277Z,16.08
2018-09-21T12:21:08.819Z,16.31
2018-09-21T12:23:36.841Z,16.37
2018-09-21T12:26:04.429Z,16.44
2018-09-21T12:28:32.187Z,16.19
2018-09-21T12:30:59.874Z,16.16
2018-09-21T12:33:28.446Z,16.43
2018-09-21T12:35:56.025Z,16.27
2018-09-21T12:38:23.539Z,16.35
2018-09-21T12:40:51.275Z,16.10
2018-09-21T12:43:18.807Z,16.04
2018-09-21T12:45:46.406Z,16.02
2018-09-21T12:48:13.926Z,15.95
2018-09-21T12:50:41.586Z,16.08
2018-09-21T12:53:09.083Z,16.16
2018-09-21T12:55:36.589Z,15.97
2018-09-21T12:58:04.269Z,16.06
2018-09-21T13:00:31.755Z,16.11
2018-09-21T13:02:59.300Z,15.89
2018-09-21T13:05:26.908Z,16.04
2018-09-21T13:07:54.446Z,15.88
2018-09-21T13:10:22.026Z,15.87
2018-09-21T13:12:49.841Z,15.84
2018-09-21T13:15:17.579Z,15.87
2018-09-21T13:17:45.131Z,16.01
2018-09-21T13:20:12.733Z,16.13
2018-09-21T13:22:40.339Z,16.07
2018-09-21T13:25:07.910Z,15.98
2018-09-21T13:27:35.465Z,15.96
2018-09-21T13:30:03.247Z,16.08
2018-09-21T13:32:30.974Z,16.02
2018-09-21T13:34:58.557Z,15.84
2018-09-21T13:37:26.205Z,15.92
2018-09-21T13:39:54.044Z,16.08
2018-09-21T13:42:21.605Z,16.30
2018-09-21T13:44:49.126Z,16.08
2018-09-21T13:47:16.709Z,16.04
2018-09-21T13:49:44.363Z,15.93
2018-09-21T13:52:11.934Z,15.80
2018-09-21T13:54:39.515Z,15.92
2018-09-21T13:57:07.082Z,16.12
2018-09-21T13:59:34.657Z,15.84
2018-09-21T14:02:02.173Z,16.24
2018-09-21T14:04:29.746Z,16.05
2018-09-21T14:06:57.340Z,16.14
2018-09-21T14:09:25.015Z,16.40
2018-09-21T14:11:52.539Z,16.23
2018-09-21T14:14:20.129Z,16.15
2018-09-21T14:16:47.660Z,16.19
2018-09-21T14:19:15.217Z,16.28
2018-09-21T14:21:42.738Z,16.74
2018-09-21T14:24:10.442Z,16.78
2018-09-21T14:26:38.108Z,16.91
2018-09-21T14:29:05.736Z,16.86
2018-09-21T14:31:33.301Z,16.63
2018-09-21T14:34:00.823Z,16.90
2018-09-21T14:36:28.913Z,16.81
2018-09-21T14:38:56.832Z,16.88
2018-09-21T14:41:26.954Z,16.89
2018-09-21T14:44:01.392Z,16.87
2018-09-21T14:46:29.568Z,16.65
2018-09-21T14:48:59.926Z,16.46
2018-09-21T14:51:29.649Z,16.02
2018-09-21T14:53:57.895Z,16.46
2018-09-21T14:56:25.988Z,16.48
2018-09-21T14:58:57.146Z,16.41
2018-09-21T15:01:25.008Z,16.39
2018-09-21T15:03:52.905Z,16.38
2018-09-21T15:06:20.804Z,16.23
2018-09-21T15:08:48.754Z,16.19
2018-09-21T15:11:16.597Z,16.17
2018-09-21T15:13:46.481Z,16.26
2018-09-21T15:16:15.207Z,16.00
2018-09-21T15:18:44.657Z,16.14
2018-09-21T15:21:13.569Z,16.21
2018-09-21T15:23:43.657Z,15.91
2018-09-21T15:26:12.628Z,16.02
2018-09-21T15:28:42.031Z,16.41
2018-09-21T15:31:10.197Z,16.56
2018-09-21T15:33:38.849Z,16.74
2018-09-21T15:36:06.916Z,16.41
2018-09-21T15:38:34.737Z,16.29
2018-09-21T15:41:03.602Z,16.52
2018-09-21T15:43:31.582Z,16.56
2018-09-21T15:46:00.496Z,16.75
2018-09-21T15:48:28.430Z,16.46
2018-09-21T15:50:56.404Z,16.70
2018-09-21T15:53:24.848Z,16.65
2018-09-21T15:55:53.885Z,16.76
2018-09-21T15:58:25.145Z,16.93
2018-09-21T16:00:53.136Z,17.06
2018-09-21T16:03:21.601Z,16.86
2018-09-21T16:05:50.686Z,16.79
2018-09-21T16:08:19.022Z,16.68
2018-09-21T16:10:47.141Z,16.40
2018-09-21T16:13:22.058Z,16.42
2018-09-21T16:15:49.951Z,16.44
2018-09-21T16:18:18.734Z,16.68
2018-09-21T16:20:47.811Z,16.42
2018-09-21T16:23:16.644Z,16.37
2018-09-21T16:25:47.738Z,16.20
2018-09-21T16:28:15.543Z,16.42
2018-09-21T16:30:43.320Z,16.31
2018-09-21T16:33:11.839Z,16.58
2018-09-21T16:35:40.232Z,16.45
2018-09-21T16:38:07.993Z,16.25
2018-09-21T16:40:35.896Z,16.32
2018-09-21T16:43:03.823Z,16.24
2018-09-21T16:45:31.666Z,16.30
2018-09-21T16:48:00.423Z,16.18
2018-09-21T16:50:30.589Z,16.27
2018-09-21T16:53:00.743Z,16.22
2018-09-21T16:55:29.530Z,16.27
2018-09-21T16:58:01.663Z,16.09
2018-09-21T17:00:30.114Z,16.02
2018-09-21T17:02:59.285Z,15.94
2018-09-21T17:05:27.563Z,16.12
2018-09-21T17:07:55.739Z,16.22
2018-09-21T17:10:25.058Z,15.96
2018-09-21T17:12:54.119Z,16.05
2018-09-21T17:15:22.383Z,15.79
2018-09-21T17:17:51.922Z,15.88
2018-09-21T17:20:19.654Z,15.75
2018-09-21T17:22:47.689Z,15.55
2018-09-21T17:25:16.446Z,15.72
2018-09-21T17:27:45.044Z,15.69
2018-09-21T17:30:13.940Z,15.54
2018-09-21T17:32:43.763Z,15.63
2018-09-21T17:35:11.633Z,15.74
2018-09-21T17:37:39.703Z,15.55
2018-09-21T17:40:07.735Z,15.62
2018-09-21T17:42:36.541Z,15.34
2018-09-21T17:45:06.386Z,15.50
2018-09-21T17:47:35.435Z,15.49
2018-09-21T17:50:03.748Z,15.74
2018-09-21T17:52:32.674Z,15.52
2018-09-21T17:55:01.915Z,15.58
2018-09-21T17:57:31.284Z,15.70
2018-09-21T17:59:59.468Z,15.58
2018-09-21T18:02:28.270Z,15.48
2018-09-21T18:04:58.411Z,15.40
2018-09-21T18:07:27.941Z,15.27
2018-09-21T18:09:56.567Z,15.44
2018-09-21T18:12:25.183Z,15.23
2018-09-21T18:14:53.039Z,15.20
2018-09-21T18:17:20.897Z,15.34
2018-09-21T18:19:49.405Z,15.40
2018-09-21T18:22:17.249Z,15.50
2018-09-21T18:24:45.090Z,15.38
2018-09-21T18:27:12.863Z,15.18
2018-09-21T18:29:40.831Z,15.38
2018-09-21T18:32:08.650Z,15.48
2018-09-21T18:34:36.531Z,15.69
2018-09-21T18:37:04.306Z,15.34
2018-09-21T18:39:31.993Z,15.59
2018-09-21T18:41:59.867Z,15.33
2018-09-21T18:44:27.596Z,15.44
2018-09-21T18:46:55.795Z,15.28
2018-09-21T18:49:23.498Z,15.56
2018-09-21T18:51:51.360Z,15.23
2018-09-21T18:54:19.147Z,14.98
2018-09-21T18:56:46.914Z,15.13
2018-09-21T18:59:14.827Z,14.97
2018-09-21T19:01:42.525Z,15.09
2018-09-21T19:04:10.328Z,14.96
2018-09-21T19:06:38.338Z,14.88
2018-09-21T19:09:06.449Z,15.02
2018-09-21T19:11:34.392Z,15.16
2018-09-21T19:14:02.093Z,15.05
2018-09-21T19:16:30.308Z,15.08
2018-09-21T19:18:58.626Z,15.20
2018-09-21T19:21:26.496Z,15.08
2018-09-21T19:23:54.375Z,15.05
2018-09-21T19:26:22.092Z,15.27
2018-09-21T19:28:49.826Z,15.24
2018-09-21T19:31:17.417Z,15.03
2018-09-21T19:33:44.955Z,15.22
2018-09-21T19:36:12.593Z,15.18
2018-09-21T19:38:40.241Z,15.01
2018-09-21T19:41:09.260Z,14.99
2018-09-21T19:43:38.102Z,14.79
2018-09-21T19:46:05.853Z,14.96
2018-09-21T19:48:33.589Z,14.83
2018-09-21T19:51:01.175Z,14.82
2018-09-21T19:53:29.665Z,14.93
2018-09-21T19:55:57.439Z,14.86
2018-09-21T19:58:25.167Z,15.05
2018-09-21T20:00:52.934Z,14.97
2018-09-21T20:03:20.688Z,14.80
2018-09-21T20:05:48.590Z,14.85
2018-09-21T20:08:16.165Z,14.81
2018-09-21T20:10:43.798Z,14.99
2018-09-21T20:13:11.408Z,14.88
2018-09-21T20:15:39.207Z,15.04
2018-09-21T20:18:07.163Z,15.10
2018-09-21T20:20:34.784Z,14.87
2018-09-21T20:23:02.386Z,14.83
2018-09-21T20:25:29.973Z,14.79
2018-09-21T20:27:57.725Z,15.00
2018-09-21T20:30:25.601Z,14.78
2018-09-21T20:33:11.444Z,15.02
2018-09-21T20:35:39.209Z,14.92
2018-09-21T20:38:07.813Z,14.79
2018-09-21T20:40:35.560Z,14.74
2018-09-21T20:43:03.677Z,15.01
2018-09-21T20:45:31.760Z,14.90
2018-09-21T20:48:00.451Z,14.66
2018-09-21T20:50:28.371Z,14.71
2018-09-21T20:52:55.978Z,14.64
2018-09-21T20:55:23.647Z,14.73
2018-09-21T20:57:51.229Z,14.86
2018-09-21T21:00:18.902Z,14.71
2018-09-21T21:02:46.537Z,14.68
2018-09-21T21:05:14.949Z,14.63
2018-09-21T21:07:42.723Z,14.69
2018-09-21T21:10:10.412Z,14.66
2018-09-21T21:12:38.406Z,14.70
2018-09-21T21:15:06.510Z,14.61
2018-09-21T21:17:34.340Z,14.44
2018-09-21T21:20:02.129Z,14.56
2018-09-21T21:22:29.805Z,14.77
2018-09-21T21:24:57.664Z,14.50
2018-09-21T21:27:25.339Z,14.45
2018-09-21T21:29:53.085Z,14.49
2018-09-21T21:32:21.078Z,14.49
2018-09-21T21:34:48.703Z,14.17
2018-09-21T21:37:16.552Z,14.26
2018-09-21T21:39:44.213Z,14.49
2018-09-21T21:42:11.904Z,14.47
2018-09-21T21:44:39.806Z,14.34
2018-09-21T21:47:07.405Z,14.32
2018-09-21T21:49:35.227Z,14.23
2018-09-21T21:52:03.081Z,14.18
2018-09-21T21:54:31.578Z,14.27
2018-09-21T21:56:59.216Z,14.14
2018-09-21T21:59:26.849Z,13.97
2018-09-21T22:01:54.494Z,14.02
2018-09-21T22:04:22.242Z,14.06
2018-09-21T22:06:49.978Z,14.16
2018-09-21T22:09:17.925Z,14.10
2018-09-21T22:11:45.666Z,13.82
2018-09-21T22:14:13.729Z,13.83
2018-09-21T22:16:41.457Z,14.03
2018-09-21T22:19:09.137Z,13.91
2018-09-21T22:21:37.865Z,13.98
2018-09-21T22:24:05.675Z,13.96
2018-09-21T22:26:33.425Z,13.75
2018-09-21T22:29:00.993Z,13.65
2018-09-21T22:31:28.569Z,13.65
2018-09-21T22:33:56.936Z,13.79
2018-09-21T22:36:24.491Z,13.79
2018-09-21T22:38:52.176Z,13.94
2018-09-21T22:41:19.821Z,13.65
2018-09-21T22:43:47.406Z,13.88
2018-09-21T22:46:15.210Z,13.69
2018-09-21T22:48:42.851Z,13.95
2018-09-21T22:51:10.657Z,13.83
2018-09-21T22:53:38.429Z,13.86
2018-09-21T22:56:06.208Z,13.92
2018-09-21T22:58:34.115Z,13.70
2018-09-21T23:01:02.194Z,13.65
2018-09-21T23:03:29.738Z,13.97
2018-09-21T23:05:57.533Z,13.76
2018-09-21T23:08:25.314Z,13.86
2018-09-21T23:10:53.060Z,14.00
2018-09-21T23:13:20.763Z,14.05
2018-09-21T23:15:48.412Z,13.79
2018-09-21T23:18:16.008Z,13.89
2018-09-21T23:20:43.857Z,13.97
2018-09-21T23:23:11.528Z,14.05
2018-09-21T23:25:39.339Z,13.83
2018-09-21T23:28:06.967Z,13.82
2018-09-21T23:30:34.549Z,13.83
2018-09-21T23:35:35.988Z,13.73
2018-09-21T23:38:03.531Z,14.10
2018-09-21T23:40:31.113Z,13.76
2018-09-21T23:42:58.688Z,14.01
2018-09-21T23:45:26.288Z,13.79
2018-09-21T23:47:53.810Z,13.91
2018-09-21T23:50:21.437Z,13.85
2018-09-21T23:52:48.993Z,13.68
2018-09-21T23:55:16.516Z,13.86
2018-09-21T23:57:44.217Z,13.88
